createdAt,value
2023-04-27T00:00:00.270Z,5.8923
2023-04-27T00:01:03.167Z,7.4154
2023-04-27T00:02:06.192Z,8.5154
2023-04-27T00:03:09.414Z,6.8769
2023-04-27T00:04:12.164Z,7.2769
2023-04-27T00:05:15.225Z,6.0231
2023-04-27T00:06:17.967Z,6.5231
2023-04-27T00:07:20.878Z,6.2846
2023-04-27T00:08:23.836Z,5.5308
2023-04-27T00:09:26.766Z,6.3308
2023-04-27T00:10:29.796Z,6.0385
2023-04-27T00:11:32.667Z,7.8692
2023-04-27T00:12:35.638Z,6.8692
2023-04-27T00:13:38.599Z,6.1462
2023-04-27T00:14:41.546Z,6.7231
2023-04-27T00:15:44.532Z,6.6154
2023-04-27T00:16:47.582Z,7.4385
2023-04-27T00:17:50.419Z,6.8846
2023-04-27T00:18:53.322Z,7.0615
2023-04-27T00:19:56.270Z,6.2462
2023-04-27T00:20:59.283Z,6.4923
2023-04-27T00:22:02.215Z,5.9231
2023-04-27T00:23:05.121Z,6.0615
2023-04-27T00:24:08.070Z,5.7385
2023-04-27T00:25:11.050Z,7.1231
2023-04-27T00:26:13.977Z,7.2538
2023-04-27T00:27:16.930Z,6.1308
2023-04-27T00:28:19.877Z,6.6231
2023-04-27T00:29:22.831Z,6.5769
2023-04-27T00:30:25.769Z,5.9308
2023-04-27T00:31:28.756Z,6.3846
2023-04-27T00:32:31.700Z,6.5923
2023-04-27T00:33:34.652Z,7.3462
2023-04-27T00:34:37.574Z,6.8846
2023-04-27T00:35:40.725Z,8.3308
2023-04-27T00:36:43.492Z,7.4846
2023-04-27T00:37:46.412Z,6.5000
2023-04-27T00:38:49.371Z,6.1231
2023-04-27T00:39:52.367Z,6.3000
2023-04-27T00:40:55.267Z,6.9077
2023-04-27T00:41:58.247Z,9.5846
2023-04-27T00:43:01.193Z,6.7615
2023-04-27T00:44:04.122Z,8.0538
2023-04-27T00:45:07.081Z,7.7154
2023-04-27T00:46:10.069Z,7.5154
2023-04-27T00:47:13.018Z,6.5846
2023-04-27T00:48:15.994Z,7.3692
2023-04-27T00:49:18.876Z,8.0615
2023-04-27T00:50:21.825Z,6.8923
2023-04-27T00:51:24.780Z,6.6846
2023-04-27T00:52:27.737Z,6.4769
2023-04-27T00:53:30.689Z,6.9462
2023-04-27T00:54:33.678Z,7.2000
2023-04-27T00:55:36.612Z,6.4154
2023-04-27T00:56:39.540Z,6.3846
2023-04-27T00:57:42.505Z,5.8308
2023-04-27T00:58:45.421Z,6.8385
2023-04-27T00:59:48.412Z,8.7538
2023-04-27T01:00:51.341Z,6.6385
2023-04-27T01:01:54.277Z,7.5846
2023-04-27T01:02:57.329Z,7.3769
2023-04-27T01:04:00.298Z,6.8692
2023-04-27T01:05:03.124Z,7.1923
2023-04-27T01:06:06.072Z,5.8385
2023-04-27T01:07:09.196Z,7.7615
2023-04-27T01:08:11.983Z,8.5000
2023-04-27T01:09:15.137Z,6.5462
2023-04-27T01:10:17.871Z,7.1692
2023-04-27T01:11:20.826Z,6.6308
2023-04-27T01:12:23.757Z,7.5615
2023-04-27T01:13:26.757Z,8.0615
2023-04-27T01:14:29.656Z,7.0538
2023-04-27T01:15:32.603Z,8.8769
2023-04-27T01:16:35.602Z,8.6538
2023-04-27T01:17:38.561Z,8.4308
2023-04-27T01:18:41.456Z,6.5692
2023-04-27T01:19:44.478Z,7.7154
2023-04-27T01:20:47.381Z,7.9615
2023-04-27T01:21:50.397Z,8.7231
2023-04-27T01:22:53.248Z,8.5000
2023-04-27T01:23:56.186Z,8.3231
2023-04-27T01:24:59.228Z,8.3846
2023-04-27T01:26:02.095Z,7.6077
2023-04-27T01:27:05.064Z,9.0692
2023-04-27T01:28:08.025Z,8.0538
2023-04-27T01:29:11.235Z,6.8077
2023-04-27T01:30:13.926Z,8.3231
2023-04-27T01:31:16.909Z,7.5846
2023-04-27T01:32:19.806Z,9.2077
2023-04-27T01:33:22.782Z,8.3462
2023-04-27T01:34:25.715Z,8.1615
2023-04-27T01:35:28.641Z,8.6077
2023-04-27T01:36:31.591Z,6.7000
2023-04-27T01:37:34.547Z,7.7769
2023-04-27T01:38:37.499Z,7.9154
2023-04-27T01:39:40.449Z,7.2462
2023-04-27T01:40:43.384Z,6.3615
2023-04-27T01:41:46.371Z,6.9308
2023-04-27T01:42:49.280Z,7.6231
2023-04-27T01:43:52.244Z,7.4923
2023-04-27T01:44:55.205Z,6.8769
2023-04-27T01:45:58.181Z,7.4923
2023-04-27T01:47:01.195Z,6.5385
2023-04-27T01:48:04.069Z,6.7154
2023-04-27T01:49:06.991Z,6.4923
2023-04-27T01:50:09.971Z,6.6769
2023-04-27T01:51:12.940Z,6.6846
2023-04-27T01:52:15.894Z,6.9462
2023-04-27T01:53:18.794Z,7.7692
2023-04-27T01:54:21.739Z,7.5692
2023-04-27T01:55:24.702Z,6.4385
2023-04-27T01:56:27.654Z,6.3231
2023-04-27T01:57:30.613Z,7.7923
2023-04-27T01:58:33.583Z,6.4538
2023-04-27T01:59:36.506Z,7.4462
2023-04-27T02:00:39.439Z,6.5077
2023-04-27T02:01:42.462Z,7.1231
2023-04-27T02:02:45.422Z,7.2846
2023-04-27T02:03:48.415Z,6.5000
2023-04-27T02:04:51.255Z,7.8462
2023-04-27T02:05:54.183Z,7.2154
2023-04-27T02:06:57.141Z,7.5077
2023-04-27T02:08:00.135Z,7.5538
2023-04-27T02:09:03.003Z,8.4462
2023-04-27T02:10:05.999Z,7.3923
2023-04-27T02:11:08.934Z,8.0615
2023-04-27T02:12:11.878Z,7.9385
2023-04-27T02:13:14.795Z,8.1231
2023-04-27T02:14:17.746Z,7.6846
2023-04-27T02:15:20.676Z,8.4462
2023-04-27T02:16:23.673Z,8.0846
2023-04-27T02:17:26.814Z,7.8615
2023-04-27T02:18:29.525Z,7.1385
2023-04-27T02:19:32.491Z,7.7538
2023-04-27T02:20:35.495Z,6.6385
2023-04-27T02:21:38.371Z,8.5308
2023-04-27T02:22:41.317Z,8.9923
2023-04-27T02:23:44.261Z,9.1000
2023-04-27T02:24:47.270Z,7.8846
2023-04-27T02:25:50.142Z,7.4231
2023-04-27T02:26:53.112Z,7.9692
2023-04-27T02:27:56.061Z,7.7615
2023-04-27T02:28:58.993Z,7.0538
2023-04-27T02:30:01.966Z,8.5615
2023-04-27T02:31:04.931Z,8.5077
2023-04-27T02:32:07.834Z,7.5308
2023-04-27T02:33:10.797Z,8.1385
2023-04-27T02:34:13.732Z,8.2846
2023-04-27T02:35:16.719Z,7.6538
2023-04-27T02:36:19.714Z,7.8231
2023-04-27T02:37:22.691Z,7.8615
2023-04-27T02:38:25.585Z,7.4308
2023-04-27T02:39:28.545Z,8.0538
2023-04-27T02:40:31.513Z,7.7692
2023-04-27T02:41:34.457Z,7.9000
2023-04-27T02:42:37.392Z,6.4462
2023-04-27T02:43:40.342Z,7.2385
2023-04-27T02:44:43.314Z,7.5462
2023-04-27T02:45:46.229Z,7.5462
2023-04-27T02:46:49.224Z,6.7385
2023-04-27T02:47:52.172Z,7.0462
2023-04-27T02:48:55.112Z,8.0462
2023-04-27T02:49:58.039Z,7.0154
2023-04-27T02:51:00.968Z,7.1692
2023-04-27T02:52:03.944Z,6.4692
2023-04-27T02:53:06.875Z,6.1000
2023-04-27T02:54:09.821Z,6.9923
2023-04-27T02:55:12.769Z,7.1385
2023-04-27T02:56:15.738Z,7.9308
2023-04-27T02:57:18.664Z,6.9923
2023-04-27T02:58:21.609Z,7.8692
2023-04-27T02:59:24.556Z,6.6615
2023-04-27T03:00:27.508Z,7.2615
2023-04-27T03:01:30.510Z,6.6154
2023-04-27T03:02:33.512Z,7.1077
2023-04-27T03:03:36.422Z,7.7308
2023-04-27T03:04:39.464Z,7.3538
2023-04-27T03:05:42.246Z,7.3308
2023-04-27T03:06:45.204Z,6.7385
2023-04-27T03:07:48.199Z,7.2077
2023-04-27T03:08:51.098Z,8.5846
2023-04-27T03:09:54.033Z,7.4154
2023-04-27T03:10:56.996Z,7.1308
2023-04-27T03:12:00.058Z,6.8462
2023-04-27T03:13:02.902Z,7.9077
2023-04-27T03:14:05.842Z,7.2615
2023-04-27T03:15:08.792Z,6.9692
2023-04-27T03:16:11.827Z,8.7385
2023-04-27T03:17:14.679Z,7.2154
2023-04-27T03:18:17.699Z,7.0000
2023-04-27T03:19:20.575Z,7.5846
2023-04-27T03:20:23.541Z,7.9154
2023-04-27T03:21:26.472Z,7.7308
2023-04-27T03:22:29.468Z,7.0692
2023-04-27T03:23:32.373Z,7.5462
2023-04-27T03:24:35.324Z,7.2462
2023-04-27T03:25:38.266Z,6.8385
2023-04-27T03:26:41.272Z,8.6615
2023-04-27T03:27:44.169Z,7.1385
2023-04-27T03:28:47.103Z,7.3385
2023-04-27T03:29:50.068Z,7.9077
2023-04-27T03:30:53.009Z,8.6923
2023-04-27T03:31:55.973Z,8.4846
2023-04-27T03:32:58.963Z,6.1846
2023-04-27T03:34:01.861Z,7.0538
2023-04-27T03:35:04.790Z,6.5462
2023-04-27T03:36:07.780Z,6.5615
2023-04-27T03:37:10.740Z,6.6923
2023-04-27T03:38:13.683Z,7.8077
2023-04-27T03:39:16.654Z,7.3769
2023-04-27T03:40:19.547Z,6.9615
2023-04-27T03:41:22.484Z,8.2077
2023-04-27T03:42:25.626Z,7.1231
2023-04-27T03:43:28.408Z,6.7692
2023-04-27T03:44:31.374Z,7.5308
2023-04-27T03:45:34.285Z,7.5231
2023-04-27T03:46:37.248Z,7.7538
2023-04-27T03:47:40.261Z,8.0769
2023-04-27T03:48:43.180Z,7.9538
2023-04-27T03:49:46.110Z,7.3615
2023-04-27T03:50:49.036Z,7.3462
2023-04-27T03:51:51.981Z,7.4846
2023-04-27T03:52:54.946Z,6.9692
2023-04-27T03:53:57.861Z,8.0615
2023-04-27T03:55:00.876Z,7.4231
2023-04-27T03:56:03.756Z,6.7769
2023-04-27T03:57:06.731Z,7.0923
2023-04-27T03:58:09.706Z,5.6000
2023-04-27T03:59:12.950Z,7.6462
2023-04-27T04:00:15.571Z,7.7231
2023-04-27T04:01:18.503Z,7.9769
2023-04-27T04:02:21.520Z,6.4692
2023-04-27T04:03:24.534Z,7.3385
2023-04-27T04:04:27.514Z,8.1154
2023-04-27T04:05:30.353Z,6.9923
2023-04-27T04:06:33.231Z,6.6308
2023-04-27T04:07:36.206Z,7.1923
2023-04-27T04:08:39.129Z,7.0538
2023-04-27T04:09:42.160Z,6.9385
2023-04-27T04:10:45.070Z,8.7923
2023-04-27T04:11:48.055Z,6.9385
2023-04-27T04:12:50.971Z,8.4077
2023-04-27T04:13:53.967Z,7.0154
2023-04-27T04:14:56.845Z,8.3462
2023-04-27T04:15:59.892Z,6.4462
2023-04-27T04:17:02.829Z,6.6154
2023-04-27T04:18:05.779Z,7.3077
2023-04-27T04:19:08.670Z,6.5538
2023-04-27T04:20:11.609Z,6.7538
2023-04-27T04:21:14.875Z,6.0692
2023-04-27T04:22:17.469Z,6.3923
2023-04-27T04:23:20.443Z,7.1077
2023-04-27T04:24:23.372Z,7.5538
2023-04-27T04:25:26.360Z,8.3308
2023-04-27T04:26:29.342Z,6.7077
2023-04-27T04:27:32.278Z,6.3077
2023-04-27T04:28:35.178Z,7.4154
2023-04-27T04:29:38.104Z,7.0538
2023-04-27T04:30:41.093Z,8.5000
2023-04-27T04:31:44.060Z,7.9615
2023-04-27T04:32:47.049Z,6.7000
2023-04-27T04:33:49.945Z,6.8385
2023-04-27T04:34:52.863Z,7.1846
2023-04-27T04:35:55.819Z,6.6231
2023-04-27T04:36:58.783Z,8.6462
2023-04-27T04:38:01.757Z,7.3692
2023-04-27T04:39:04.689Z,7.7692
2023-04-27T04:40:07.602Z,6.9923
2023-04-27T04:41:10.576Z,6.5462
2023-04-27T04:42:13.492Z,6.9692
2023-04-27T04:43:16.489Z,8.7615
2023-04-27T04:44:19.413Z,9.0154
2023-04-27T04:45:22.400Z,7.8231
2023-04-27T04:46:25.337Z,7.3769
2023-04-27T04:47:28.315Z,7.4154
2023-04-27T04:48:31.218Z,10.2769
2023-04-27T04:49:34.265Z,8.4000
2023-04-27T04:50:37.096Z,7.5231
2023-04-27T04:51:40.039Z,8.6385
2023-04-27T04:52:42.999Z,7.3154
2023-04-27T04:53:46.057Z,7.6462
2023-04-27T04:54:48.923Z,7.5308
2023-04-27T04:55:51.852Z,7.7000
2023-04-27T04:56:54.769Z,9.4308
2023-04-27T04:57:57.742Z,8.3077
2023-04-27T04:59:00.700Z,7.9846
2023-04-27T05:00:03.677Z,7.5077
2023-04-27T05:01:06.828Z,7.6769
2023-04-27T05:02:09.545Z,8.0692
2023-04-27T05:03:15.211Z,7.7462
2023-04-27T05:04:15.794Z,7.6154
2023-04-27T05:05:18.368Z,7.6692
2023-04-27T05:06:21.328Z,7.8846
2023-04-27T05:07:25.173Z,6.6154
2023-04-27T05:08:27.249Z,7.1000
2023-04-27T05:09:30.187Z,6.6308
2023-04-27T05:10:33.120Z,5.9308
2023-04-27T05:11:36.034Z,7.6923
2023-04-27T05:12:38.990Z,6.9308
2023-04-27T05:13:41.949Z,7.3385
2023-04-27T05:14:44.904Z,8.1923
2023-04-27T05:15:47.858Z,6.7385
2023-04-27T05:16:50.766Z,6.2462
2023-04-27T05:17:53.820Z,6.2615
2023-04-27T05:18:56.676Z,7.5538
2023-04-27T05:19:59.637Z,7.2846
2023-04-27T05:21:02.561Z,6.8154
2023-04-27T05:22:05.510Z,6.5615
2023-04-27T05:23:08.486Z,7.1692
2023-04-27T05:24:11.403Z,6.8308
2023-04-27T05:25:14.528Z,6.8077
2023-04-27T05:26:17.290Z,6.1615
2023-04-27T05:27:20.261Z,6.8308
2023-04-27T05:28:23.192Z,6.1769
2023-04-27T05:29:26.164Z,5.9000
2023-04-27T05:30:29.114Z,7.9615
2023-04-27T05:31:32.049Z,5.9000
2023-04-27T05:32:35.040Z,9.8154
2023-04-27T05:33:37.930Z,7.1231
2023-04-27T05:34:40.979Z,7.1769
2023-04-27T05:35:43.830Z,7.2462
2023-04-27T05:36:46.795Z,6.0692
2023-04-27T05:37:49.743Z,6.7462
2023-04-27T05:38:52.676Z,6.9692
2023-04-27T05:39:55.636Z,6.5615
2023-04-27T05:40:58.563Z,6.9462
2023-04-27T05:42:01.604Z,7.2692
2023-04-27T05:43:04.450Z,8.5538
2023-04-27T05:44:07.429Z,7.3077
2023-04-27T05:45:10.343Z,7.4154
2023-04-27T05:46:13.389Z,7.5308
2023-04-27T05:47:16.258Z,6.5769
2023-04-27T05:48:19.181Z,6.4846
2023-04-27T05:49:22.129Z,6.9769
2023-04-27T05:50:25.079Z,7.0077
2023-04-27T05:51:28.013Z,8.0769
2023-04-27T05:52:31.048Z,6.5308
2023-04-27T05:53:33.914Z,5.8615
2023-04-27T05:54:36.861Z,7.4846
2023-04-27T05:55:39.803Z,7.8385
2023-04-27T05:56:42.771Z,7.5308
2023-04-27T05:58:48.708Z,7.9385
2023-04-27T05:59:51.600Z,8.3154
2023-04-27T06:00:54.689Z,8.2231
2023-04-27T06:01:57.637Z,7.8769
2023-04-27T06:03:00.711Z,7.3385
2023-04-27T06:04:03.526Z,7.7000
2023-04-27T06:05:06.430Z,8.6538
2023-04-27T06:06:09.293Z,8.7769
2023-04-27T06:07:12.277Z,8.1923
2023-04-27T06:08:15.188Z,9.0615
2023-04-27T06:09:18.151Z,8.7615
2023-04-27T06:10:21.084Z,8.5231
2023-04-27T06:11:24.056Z,7.5385
2023-04-27T06:12:26.994Z,8.1692
2023-04-27T06:13:29.923Z,8.6462
2023-04-27T06:14:32.872Z,9.1231
2023-04-27T06:15:35.834Z,9.1538
2023-04-27T06:16:39.016Z,9.6615
2023-04-27T06:17:41.806Z,8.4000
2023-04-27T06:18:44.658Z,9.2231
2023-04-27T06:19:47.605Z,9.9692
2023-04-27T06:20:50.550Z,7.7769
2023-04-27T06:21:53.517Z,9.5692
2023-04-27T06:22:56.432Z,10.9385
2023-04-27T06:23:59.439Z,7.4308
2023-04-27T06:25:02.363Z,8.1538
2023-04-27T06:26:05.270Z,7.9462
2023-04-27T06:27:08.227Z,8.0077
2023-04-27T06:28:11.180Z,8.3077
2023-04-27T06:29:14.374Z,7.8692
2023-04-27T06:30:17.055Z,8.3077
2023-04-27T06:31:20.077Z,8.5000
2023-04-27T06:32:22.993Z,8.7769
2023-04-27T06:33:25.917Z,6.9692
2023-04-27T06:34:28.852Z,8.2462
2023-04-27T06:35:31.798Z,7.0308
2023-04-27T06:36:34.750Z,6.7231
2023-04-27T06:37:37.694Z,7.4231
2023-04-27T06:38:40.652Z,8.5077
2023-04-27T06:39:43.594Z,8.5769
2023-04-27T06:40:46.536Z,9.6000
2023-04-27T06:41:49.492Z,8.0923
2023-04-27T06:42:52.461Z,8.6923
2023-04-27T06:43:57.472Z,8.1000
2023-04-27T06:44:58.396Z,8.4462
2023-04-27T06:46:01.449Z,8.4462
2023-04-27T06:47:04.288Z,9.0462
2023-04-27T06:48:07.388Z,7.8923
2023-04-27T06:49:10.193Z,8.6692
2023-04-27T06:50:13.147Z,10.0923
2023-04-27T06:51:16.069Z,9.1692
2023-04-27T06:52:19.007Z,8.1154
2023-04-27T06:53:21.944Z,7.0462
2023-04-27T06:54:24.912Z,8.7231
2023-04-27T06:55:27.839Z,9.2615
2023-04-27T06:56:30.797Z,9.7692
2023-04-27T06:57:33.734Z,8.2154
2023-04-27T06:58:36.711Z,8.5231
2023-04-27T06:59:39.635Z,8.5154
2023-04-27T07:00:42.663Z,7.4538
2023-04-27T07:01:45.543Z,7.6000
2023-04-27T07:02:48.518Z,8.9385
2023-04-27T07:03:51.936Z,8.3462
2023-04-27T07:04:54.436Z,7.9462
2023-04-27T07:05:57.294Z,8.6000
2023-04-27T07:07:00.242Z,8.0231
2023-04-27T07:08:06.161Z,8.0769
2023-04-27T07:09:16.359Z,9.2231
2023-04-27T07:10:09.098Z,8.5923
2023-04-27T07:11:12.057Z,10.2462
2023-04-27T07:12:14.977Z,8.2538
2023-04-27T07:13:17.935Z,6.8077
2023-04-27T07:14:20.868Z,6.3846
2023-04-27T07:15:23.871Z,6.8000
2023-04-27T07:16:26.888Z,8.7077
2023-04-27T07:17:29.736Z,6.8231
2023-04-27T07:18:32.648Z,7.1692
2023-04-27T07:19:35.597Z,8.3692
2023-04-27T07:20:38.520Z,8.1615
2023-04-27T07:21:41.501Z,7.4154
2023-04-27T07:22:44.453Z,8.0154
2023-04-27T07:23:47.368Z,9.2000
2023-04-27T07:24:50.339Z,8.7154
2023-04-27T07:25:53.298Z,7.5615
2023-04-27T07:26:56.241Z,7.9769
2023-04-27T07:27:59.208Z,9.2154
2023-04-27T07:29:11.132Z,7.9000
2023-04-27T07:30:05.122Z,6.6077
2023-04-27T07:31:08.049Z,8.3385
2023-04-27T07:32:11.084Z,8.6385
2023-04-27T07:33:13.924Z,7.0308
2023-04-27T07:34:16.880Z,7.6385
2023-04-27T07:35:19.836Z,8.0385
2023-04-27T07:36:22.791Z,8.1154
2023-04-27T07:37:26.038Z,8.3308
2023-04-27T07:38:28.699Z,7.3846
2023-04-27T07:39:31.644Z,7.6154
2023-04-27T07:40:34.619Z,7.9923
2023-04-27T07:41:37.695Z,9.3615
2023-04-27T07:42:40.514Z,7.7923
2023-04-27T07:43:43.449Z,8.8077
2023-04-27T07:44:46.415Z,7.9692
2023-04-27T07:45:49.407Z,7.2538
2023-04-27T07:46:52.323Z,8.8000
2023-04-27T07:47:57.575Z,7.8769
2023-04-27T07:48:58.256Z,8.2615
2023-04-27T07:50:01.177Z,7.3462
2023-04-27T07:51:04.131Z,7.0000
2023-04-27T07:52:07.103Z,6.2615
2023-04-27T07:53:10.033Z,6.8846
2023-04-27T07:54:13.001Z,7.5077
2023-04-27T07:55:15.941Z,6.2385
2023-04-27T07:56:18.885Z,6.0308
2023-04-27T07:57:22.009Z,7.3615
2023-04-27T07:58:24.794Z,6.8538
2023-04-27T07:59:27.751Z,6.4231
2023-04-27T08:00:30.767Z,7.2154
2023-04-27T08:01:33.665Z,8.3538
2023-04-27T08:02:36.775Z,8.9231
2023-04-27T08:03:39.897Z,8.1385
2023-04-27T08:04:42.818Z,8.5615
2023-04-27T08:05:45.674Z,8.7385
2023-04-27T08:06:48.934Z,8.1077
2023-04-27T08:07:51.848Z,9.9615
2023-04-27T08:08:54.431Z,9.5769
2023-04-27T08:09:57.282Z,8.7308
2023-04-27T08:11:00.222Z,8.7923
2023-04-27T08:12:03.184Z,9.0154
2023-04-27T08:13:06.122Z,9.9385
2023-04-27T08:14:09.126Z,8.1692
2023-04-27T08:15:12.044Z,8.6308
2023-04-27T08:16:15.003Z,8.3077
2023-04-27T08:17:17.941Z,7.2769
2023-04-27T08:18:20.871Z,7.4385
2023-04-27T08:19:23.834Z,6.8231
2023-04-27T08:20:26.796Z,7.7462
2023-04-27T08:21:29.714Z,7.4462
2023-04-27T08:22:32.664Z,6.5692
2023-04-27T08:23:35.635Z,6.7615
2023-04-27T08:24:38.575Z,6.6154
2023-04-27T08:25:41.499Z,6.9692
2023-04-27T08:26:44.429Z,7.3615
2023-04-27T08:27:47.378Z,6.7077
2023-04-27T08:28:50.365Z,6.6385
2023-04-27T08:29:53.255Z,6.1308
2023-04-27T08:30:56.227Z,6.3000
2023-04-27T08:31:59.263Z,5.9615
2023-04-27T08:33:02.213Z,4.8538
2023-04-27T08:34:05.058Z,5.6000
2023-04-27T08:35:07.989Z,6.5615
2023-04-27T08:36:10.931Z,5.6385
2023-04-27T08:37:14.094Z,6.5385
2023-04-27T08:38:16.837Z,6.9923
2023-04-27T08:39:19.797Z,6.8077
2023-04-27T08:40:22.906Z,6.4615
2023-04-27T08:41:25.671Z,6.5077
2023-04-27T08:42:28.646Z,6.0692
2023-04-27T08:43:31.584Z,6.7154
2023-04-27T08:44:34.501Z,6.7308
2023-04-27T08:45:37.447Z,5.7154
2023-04-27T08:46:40.408Z,6.8385
2023-04-27T08:47:44.139Z,5.3846
2023-04-27T08:48:46.276Z,5.9231
2023-04-27T08:49:49.269Z,5.2385
2023-04-27T08:50:52.222Z,5.4923
2023-04-27T08:51:55.125Z,5.3000
2023-04-27T08:52:58.081Z,6.9000
2023-04-27T08:54:01.012Z,6.1231
2023-04-27T08:55:03.975Z,6.5923
2023-04-27T08:56:06.970Z,6.6077
2023-04-27T08:57:09.850Z,6.0462
2023-04-27T08:58:12.824Z,6.5769
2023-04-27T08:59:16.541Z,6.7231
2023-04-27T09:00:18.735Z,6.3231
2023-04-27T09:01:21.917Z,7.1846
2023-04-27T09:02:24.621Z,5.7538
2023-04-27T09:03:27.678Z,7.1846
2023-04-27T09:04:30.599Z,6.1769
2023-04-27T09:05:33.529Z,7.1462
2023-04-27T09:06:36.452Z,5.7538
2023-04-27T09:07:39.327Z,6.0538
2023-04-27T09:08:42.276Z,5.2692
2023-04-27T09:09:45.272Z,5.7692
2023-04-27T09:10:48.183Z,5.7846
2023-04-27T09:11:51.127Z,5.6154
2023-04-27T09:12:54.084Z,5.6769
2023-04-27T09:13:57.046Z,5.2231
2023-04-27T09:14:59.975Z,6.7077
2023-04-27T09:16:02.942Z,5.2077
2023-04-27T09:17:05.868Z,5.4692
2023-04-27T09:18:08.871Z,5.1923
2023-04-27T09:19:11.965Z,4.4538
2023-04-27T09:20:14.699Z,3.9308
2023-04-27T09:21:17.689Z,4.7846
2023-04-27T09:22:20.640Z,4.1615
2023-04-27T09:23:23.564Z,4.0154
2023-04-27T09:24:26.501Z,6.0231
2023-04-27T09:25:29.484Z,4.5077
2023-04-27T09:26:32.415Z,3.8615
2023-04-27T09:27:35.366Z,4.3846
2023-04-27T09:28:38.326Z,4.0769
2023-04-27T09:29:41.248Z,3.6462
2023-04-27T09:30:44.179Z,3.7615
2023-04-27T09:31:47.215Z,4.1385
2023-04-27T09:32:50.123Z,4.2154
2023-04-27T09:33:53.053Z,3.9231
2023-04-27T09:34:55.982Z,3.6154
2023-04-27T09:35:58.930Z,3.7769
2023-04-27T09:37:01.873Z,3.3538
2023-04-27T09:38:04.892Z,4.2462
2023-04-27T09:39:07.812Z,3.7385
2023-04-27T09:40:10.718Z,3.9385
2023-04-27T09:41:13.672Z,3.9462
2023-04-27T09:42:16.653Z,4.0385
2023-04-27T09:43:19.554Z,6.9000
2023-04-27T09:44:22.535Z,5.3615
2023-04-27T09:45:25.664Z,4.1538
2023-04-27T09:46:28.532Z,5.3923
2023-04-27T09:47:31.390Z,4.7000
2023-04-27T09:48:34.352Z,4.3692
2023-04-27T09:49:37.286Z,3.7000
2023-04-27T09:50:40.220Z,4.1923
2023-04-27T09:51:43.169Z,4.1154
2023-04-27T09:52:46.239Z,4.2000
2023-04-27T09:53:49.475Z,4.7000
2023-04-27T09:54:52.027Z,4.2615
2023-04-27T09:55:54.971Z,3.8231
2023-04-27T09:56:57.932Z,3.3308
2023-04-27T09:58:00.883Z,4.4923
2023-04-27T09:59:03.847Z,4.3846
2023-04-27T10:00:06.826Z,3.3462
2023-04-27T10:01:09.795Z,3.2385
2023-04-27T10:02:24.278Z,3.8538
2023-04-27T10:03:15.729Z,5.1462
2023-04-27T10:04:18.745Z,3.0308
2023-04-27T10:05:21.613Z,3.5077
2023-04-27T10:06:24.546Z,3.4385
2023-04-27T10:07:27.470Z,4.1846
2023-04-27T10:08:30.409Z,3.8308
2023-04-27T10:09:33.385Z,3.8000
2023-04-27T10:10:36.399Z,3.7846
2023-04-27T10:11:39.306Z,3.4846
2023-04-27T10:12:42.219Z,3.4923
2023-04-27T10:13:45.169Z,3.1462
2023-04-27T10:14:48.123Z,3.1923
2023-04-27T10:15:51.076Z,2.3000
2023-04-27T10:16:54.113Z,2.4615
2023-04-27T10:17:57.182Z,3.2615
2023-04-27T10:18:59.901Z,3.3154
2023-04-27T10:20:02.860Z,3.6385
2023-04-27T10:21:05.798Z,3.7000
2023-04-27T10:22:08.746Z,3.4846
2023-04-27T10:23:11.736Z,3.4308
2023-04-27T10:24:14.647Z,3.2846
2023-04-27T10:25:17.596Z,3.2769
2023-04-27T10:26:20.540Z,3.5615
2023-04-27T10:27:23.503Z,3.5385
2023-04-27T10:28:26.445Z,3.0462
2023-04-27T10:29:29.417Z,2.6923
2023-04-27T10:30:32.458Z,2.8615
2023-04-27T10:31:35.310Z,3.2538
2023-04-27T10:32:38.282Z,2.9615
2023-04-27T10:33:41.211Z,3.0462
2023-04-27T10:34:44.162Z,3.2000
2023-04-27T10:35:47.092Z,2.6000
2023-04-27T10:36:50.031Z,2.8846
2023-04-27T10:37:52.964Z,3.2846
2023-04-27T10:38:55.970Z,3.5538
2023-04-27T10:39:58.898Z,2.7923
2023-04-27T10:41:01.886Z,2.9077
2023-04-27T10:42:04.765Z,2.6077
2023-04-27T10:43:07.735Z,3.3385
2023-04-27T10:44:10.675Z,2.6000
2023-04-27T10:45:13.644Z,2.9769
2023-04-27T10:46:16.677Z,2.3538
2023-04-27T10:47:19.528Z,2.0923
2023-04-27T10:48:22.645Z,3.0538
2023-04-27T10:49:25.434Z,2.2538
2023-04-27T10:50:28.405Z,2.7769
2023-04-27T10:51:31.403Z,1.7692
2023-04-27T10:52:34.387Z,2.2692
2023-04-27T10:53:37.336Z,3.2769
2023-04-27T10:54:40.287Z,2.0846
2023-04-27T10:55:43.269Z,2.7615
2023-04-27T10:56:46.211Z,1.9846
2023-04-27T10:57:49.152Z,2.7462
2023-04-27T10:58:52.181Z,3.0000
2023-04-27T10:59:55.114Z,2.3385
2023-04-27T11:00:58.045Z,2.3308
2023-04-27T11:02:01.009Z,2.3154
2023-04-27T11:03:04.068Z,2.4538
2023-04-27T11:04:06.921Z,2.0077
2023-04-27T11:05:09.959Z,2.7000
2023-04-27T11:06:12.849Z,2.1231
2023-04-27T11:07:15.816Z,2.6154
2023-04-27T11:08:18.755Z,2.0000
2023-04-27T11:09:21.760Z,2.0000
2023-04-27T11:10:24.765Z,2.3154
2023-04-27T11:11:27.622Z,2.6538
2023-04-27T11:12:30.540Z,1.8231
2023-04-27T11:13:33.545Z,3.2154
2023-04-27T11:14:36.467Z,2.6538
2023-04-27T11:15:39.480Z,2.1615
2023-04-27T11:16:42.488Z,1.9154
2023-04-27T11:17:45.337Z,2.0154
2023-04-27T11:18:48.278Z,2.2615
2023-04-27T11:19:51.231Z,1.7615
2023-04-27T11:20:54.212Z,1.6692
2023-04-27T11:21:57.155Z,1.7308
2023-04-27T11:23:00.127Z,2.4077
2023-04-27T11:24:03.069Z,2.4231
2023-04-27T11:25:06.021Z,2.6000
2023-04-27T11:26:09.065Z,2.7077
2023-04-27T11:27:11.947Z,2.5231
2023-04-27T11:28:14.907Z,2.0615
2023-04-27T11:29:18.096Z,2.7462
2023-04-27T11:30:20.817Z,1.8769
2023-04-27T11:31:23.900Z,2.3385
2023-04-27T11:32:26.752Z,2.0154
2023-04-27T11:33:29.684Z,1.5692
2023-04-27T11:34:32.651Z,1.6692
2023-04-27T11:35:35.604Z,2.1769
2023-04-27T11:36:38.624Z,2.3077
2023-04-27T11:37:41.524Z,1.8692
2023-04-27T11:38:44.619Z,1.7077
2023-04-27T11:39:47.462Z,1.5231
2023-04-27T11:40:50.409Z,1.5692
2023-04-27T11:41:53.378Z,2.2846
2023-04-27T11:42:56.325Z,1.5000
2023-04-27T11:43:59.272Z,1.8385
2023-04-27T11:45:02.249Z,1.4615
2023-04-27T11:46:05.194Z,2.1846
2023-04-27T11:47:08.213Z,1.9231
2023-04-27T11:48:11.191Z,2.1538
2023-04-27T11:49:14.340Z,1.9769
2023-04-27T11:50:17.045Z,2.4231
2023-04-27T11:51:20.007Z,2.0077
2023-04-27T11:52:23.015Z,1.8462
2023-04-27T11:53:26.017Z,1.7385
2023-04-27T11:54:28.977Z,2.0769
2023-04-27T11:55:31.855Z,1.8462
2023-04-27T11:56:34.807Z,1.6692
2023-04-27T11:57:37.775Z,1.5615
2023-04-27T11:58:40.892Z,1.5231
2023-04-27T11:59:43.797Z,2.1308
2023-04-27T12:00:46.665Z,1.7923
2023-04-27T12:01:49.637Z,2.2462
2023-04-27T12:02:52.750Z,1.7308
2023-04-27T12:03:55.649Z,1.2000
2023-04-27T12:04:58.672Z,2.0846
2023-04-27T12:06:16.151Z,2.4077
2023-04-27T12:07:04.588Z,1.7385
2023-04-27T12:08:07.400Z,2.0154
2023-04-27T12:09:10.342Z,1.7846
2023-04-27T12:10:13.478Z,2.2385
2023-04-27T12:11:16.286Z,2.6154
2023-04-27T12:12:19.322Z,1.4000
2023-04-27T12:13:22.209Z,2.3615
2023-04-27T12:14:25.157Z,1.7615
2023-04-27T12:15:28.240Z,1.7462
2023-04-27T12:16:31.091Z,2.4692
2023-04-27T12:17:34.096Z,1.6923
2023-04-27T12:18:37.012Z,1.5385
2023-04-27T12:19:39.964Z,1.6000
2023-04-27T12:20:42.937Z,3.2308
2023-04-27T12:21:45.950Z,1.3308
2023-04-27T12:22:48.823Z,2.0538
2023-04-27T12:23:51.775Z,1.7231
2023-04-27T12:24:54.800Z,2.8692
2023-04-27T12:25:57.739Z,1.4846
2023-04-27T12:27:00.659Z,2.1000
2023-04-27T12:28:03.634Z,1.5308
2023-04-27T12:29:06.591Z,2.1385
2023-04-27T12:30:09.548Z,2.2615
2023-04-27T12:31:12.586Z,2.0077
2023-04-27T12:32:15.470Z,1.8692
2023-04-27T12:33:18.450Z,2.5538
2023-04-27T12:34:21.361Z,1.5846
2023-04-27T12:35:24.320Z,1.6462
2023-04-27T12:36:27.324Z,2.1769
2023-04-27T12:37:30.253Z,1.9692
2023-04-27T12:38:33.179Z,1.4769
2023-04-27T12:39:36.133Z,1.8846
2023-04-27T12:40:39.085Z,1.9846
2023-04-27T12:41:42.034Z,1.4769
2023-04-27T12:42:44.978Z,1.5077
2023-04-27T12:43:47.969Z,1.5077
2023-04-27T12:44:50.882Z,1.8462
2023-04-27T12:45:53.845Z,1.6077
2023-04-27T12:46:56.800Z,1.6077
2023-04-27T12:48:03.856Z,1.8538
2023-04-27T12:49:02.682Z,1.8769
2023-04-27T12:50:05.663Z,2.9846
2023-04-27T12:51:08.588Z,3.6769
2023-04-27T12:52:11.565Z,1.7000
2023-04-27T12:53:14.514Z,1.4077
2023-04-27T12:54:17.516Z,2.0538
2023-04-27T12:55:32.205Z,2.9077
2023-04-27T12:56:23.391Z,3.0385
2023-04-27T12:57:26.329Z,1.6462
2023-04-27T12:58:29.278Z,2.6308
2023-04-27T12:59:32.225Z,1.4231
2023-04-27T13:00:35.198Z,1.3462
2023-04-27T13:01:38.155Z,1.9615
2023-04-27T13:02:41.341Z,2.2077
2023-04-27T13:03:44.265Z,2.2923
2023-04-27T13:04:47.135Z,1.8923
2023-04-27T13:05:49.926Z,1.9692